sensor_id;sensor_type;location;lat;lon;timestamp;P1;durP1;ratioP1;P2;durP2;ratioP2
14358;SDS011;7263;49.418;11.064;2023-06-10T00:01:18;5.77;;;5.27;;
14358;SDS011;7263;49.418;11.064;2023-06-10T00:03:49;5.23;;;4.73;;
14358;SDS011;7263;49.418;11.064;2023-06-10T00:06:18;5.77;;;5.27;;
14358;SDS011;7263;49.418;11.064;2023-06-10T00:08:46;7.07;;;5.67;;
14358;SDS011;7263;49.418;11.064;2023-06-10T00:11:16;8.10;;;5.20;;
14358;SDS011;7263;49.418;11.064;2023-06-10T00:13:47;6.13;;;5.47;;
14358;SDS011;7263;49.418;11.064;2023-06-10T00:16:15;5.47;;;4.97;;
14358;SDS011;7263;49.418;11.064;2023-06-10T00:18:42;7.30;;;5.30;;
14358;SDS011;7263;49.418;11.064;2023-06-10T00:21:10;6.00;;;5.50;;
14358;SDS011;7263;49.418;11.064;2023-06-10T00:23:38;6.00;;;5.50;;
14358;SDS011;7263;49.418;11.064;2023-06-10T00:26:06;5.70;;;4.87;;
14358;SDS011;7263;49.418;11.064;2023-06-10T00:28:33;6.30;;;5.23;;
14358;SDS011;7263;49.418;11.064;2023-06-10T00:31:02;5.67;;;5.17;;
14358;SDS011;7263;49.418;11.064;2023-06-10T00:33:31;5.77;;;5.10;;
14358;SDS011;7263;49.418;11.064;2023-06-10T00:35:58;5.70;;;5.10;;
14358;SDS011;7263;49.418;11.064;2023-06-10T00:38:26;5.53;;;5.03;;
14358;SDS011;7263;49.418;11.064;2023-06-10T00:40:53;6.70;;;5.10;;
14358;SDS011;7263;49.418;11.064;2023-06-10T00:43:25;5.67;;;5.17;;
14358;SDS011;7263;49.418;11.064;2023-06-10T00:45:55;5.20;;;4.70;;
14358;SDS011;7263;49.418;11.064;2023-06-10T00:48:31;5.50;;;5.00;;
14358;SDS011;7263;49.418;11.064;2023-06-10T00:50:59;5.50;;;5.00;;
14358;SDS011;7263;49.418;11.064;2023-06-10T00:53:26;5.17;;;4.67;;
14358;SDS011;7263;49.418;11.064;2023-06-10T00:55:57;5.17;;;4.77;;
14358;SDS011;7263;49.418;11.064;2023-06-10T00:58:24;5.30;;;4.80;;
14358;SDS011;7263;49.418;11.064;2023-06-10T01:00:55;5.60;;;5.00;;
14358;SDS011;7263;49.418;11.064;2023-06-10T01:03:24;5.60;;;5.10;;
14358;SDS011;7263;49.418;11.064;2023-06-10T01:05:53;5.00;;;4.60;;
14358;SDS011;7263;49.418;11.064;2023-06-10T01:11:01;5.80;;;5.30;;
14358;SDS011;7263;49.418;11.064;2023-06-10T01:13:40;5.77;;;5.27;;
14358;SDS011;7263;49.418;11.064;2023-06-10T01:16:08;5.87;;;5.40;;
14358;SDS011;7263;49.418;11.064;2023-06-10T01:18:37;6.20;;;5.63;;
14358;SDS011;7263;49.418;11.064;2023-06-10T01:21:07;5.83;;;5.33;;
14358;SDS011;7263;49.418;11.064;2023-06-10T01:23:45;5.83;;;5.23;;
14358;SDS011;7263;49.418;11.064;2023-06-10T01:26:11;5.90;;;5.27;;
14358;SDS011;7263;49.418;11.064;2023-06-10T01:28:44;6.00;;;5.43;;
14358;SDS011;7263;49.418;11.064;2023-06-10T01:31:23;6.30;;;5.70;;
14358;SDS011;7263;49.418;11.064;2023-06-10T01:34:01;6.10;;;5.60;;
14358;SDS011;7263;49.418;11.064;2023-06-10T01:36:41;6.30;;;5.73;;
14358;SDS011;7263;49.418;11.064;2023-06-10T01:39:11;6.37;;;5.80;;
14358;SDS011;7263;49.418;11.064;2023-06-10T01:41:41;6.17;;;5.40;;
14358;SDS011;7263;49.418;11.064;2023-06-10T01:44:11;6.80;;;6.20;;
14358;SDS011;7263;49.418;11.064;2023-06-10T01:46:43;5.80;;;5.40;;
14358;SDS011;7263;49.418;11.064;2023-06-10T01:49:10;6.43;;;5.83;;
14358;SDS011;7263;49.418;11.064;2023-06-10T01:51:44;6.13;;;5.43;;
14358;SDS011;7263;49.418;11.064;2023-06-10T01:54:10;6.13;;;5.63;;
14358;SDS011;7263;49.418;11.064;2023-06-10T01:56:37;5.70;;;5.30;;
14358;SDS011;7263;49.418;11.064;2023-06-10T01:59:04;6.27;;;5.67;;
14358;SDS011;7263;49.418;11.064;2023-06-10T02:01:31;6.03;;;5.33;;
14358;SDS011;7263;49.418;11.064;2023-06-10T02:04:00;6.67;;;5.60;;
14358;SDS011;7263;49.418;11.064;2023-06-10T02:06:27;6.23;;;5.63;;
14358;SDS011;7263;49.418;11.064;2023-06-10T02:08:56;6.07;;;5.43;;
14358;SDS011;7263;49.418;11.064;2023-06-10T02:11:23;6.00;;;5.50;;
14358;SDS011;7263;49.418;11.064;2023-06-10T02:13:52;6.17;;;5.57;;
14358;SDS011;7263;49.418;11.064;2023-06-10T02:16:20;6.27;;;5.67;;
14358;SDS011;7263;49.418;11.064;2023-06-10T02:18:46;6.13;;;5.63;;
14358;SDS011;7263;49.418;11.064;2023-06-10T02:21:13;5.93;;;5.47;;
14358;SDS011;7263;49.418;11.064;2023-06-10T02:23:40;5.97;;;5.47;;
14358;SDS011;7263;49.418;11.064;2023-06-10T02:26:11;6.53;;;5.83;;
14358;SDS011;7263;49.418;11.064;2023-06-10T02:28:37;6.63;;;6.03;;
14358;SDS011;7263;49.418;11.064;2023-06-10T02:31:08;7.37;;;5.90;;
14358;SDS011;7263;49.418;11.064;2023-06-10T02:33:34;6.83;;;6.13;;
14358;SDS011;7263;49.418;11.064;2023-06-10T02:36:07;6.03;;;5.57;;
14358;SDS011;7263;49.418;11.064;2023-06-10T02:38:34;6.60;;;6.00;;
14358;SDS011;7263;49.418;11.064;2023-06-10T02:41:03;6.50;;;6.00;;
14358;SDS011;7263;49.418;11.064;2023-06-10T02:43:34;6.93;;;5.60;;
14358;SDS011;7263;49.418;11.064;2023-06-10T02:46:01;7.13;;;6.00;;
14358;SDS011;7263;49.418;11.064;2023-06-10T02:48:27;6.80;;;6.20;;
14358;SDS011;7263;49.418;11.064;2023-06-10T02:50:54;6.03;;;5.53;;
14358;SDS011;7263;49.418;11.064;2023-06-10T02:53:26;6.83;;;6.23;;
14358;SDS011;7263;49.418;11.064;2023-06-10T02:55:53;7.37;;;6.67;;
14358;SDS011;7263;49.418;11.064;2023-06-10T02:58:20;6.80;;;6.17;;
14358;SDS011;7263;49.418;11.064;2023-06-10T03:00:48;6.87;;;6.27;;
14358;SDS011;7263;49.418;11.064;2023-06-10T03:03:15;8.47;;;6.53;;
14358;SDS011;7263;49.418;11.064;2023-06-10T03:05:45;6.80;;;6.20;;
14358;SDS011;7263;49.418;11.064;2023-06-10T03:08:15;6.70;;;6.20;;
14358;SDS011;7263;49.418;11.064;2023-06-10T03:10:41;7.03;;;6.43;;
14358;SDS011;7263;49.418;11.064;2023-06-10T03:13:11;6.60;;;6.00;;
14358;SDS011;7263;49.418;11.064;2023-06-10T03:15:42;6.77;;;6.17;;
14358;SDS011;7263;49.418;11.064;2023-06-10T03:18:11;6.53;;;6.00;;
14358;SDS011;7263;49.418;11.064;2023-06-10T03:20:37;6.23;;;5.63;;
14358;SDS011;7263;49.418;11.064;2023-06-10T03:23:06;9.13;;;6.17;;
14358;SDS011;7263;49.418;11.064;2023-06-10T03:25:33;6.90;;;6.20;;
14358;SDS011;7263;49.418;11.064;2023-06-10T03:28:00;6.67;;;6.07;;
14358;SDS011;7263;49.418;11.064;2023-06-10T03:30:29;6.50;;;6.00;;
14358;SDS011;7263;49.418;11.064;2023-06-10T03:32:56;6.90;;;5.47;;
14358;SDS011;7263;49.418;11.064;2023-06-10T03:35:27;6.20;;;5.70;;
14358;SDS011;7263;49.418;11.064;2023-06-10T03:37:54;7.33;;;6.67;;
14358;SDS011;7263;49.418;11.064;2023-06-10T03:40:21;7.30;;;6.60;;
14358;SDS011;7263;49.418;11.064;2023-06-10T03:42:50;6.80;;;6.20;;
14358;SDS011;7263;49.418;11.064;2023-06-10T03:45:19;5.87;;;5.47;;
14358;SDS011;7263;49.418;11.064;2023-06-10T03:47:46;6.93;;;6.37;;
14358;SDS011;7263;49.418;11.064;2023-06-10T03:50:15;7.13;;;6.43;;
14358;SDS011;7263;49.418;11.064;2023-06-10T03:52:46;7.47;;;6.77;;
14358;SDS011;7263;49.418;11.064;2023-06-10T03:55:15;8.53;;;7.10;;
14358;SDS011;7263;49.418;11.064;2023-06-10T03:57:46;7.93;;;7.23;;
14358;SDS011;7263;49.418;11.064;2023-06-10T04:00:15;7.47;;;6.70;;
14358;SDS011;7263;49.418;11.064;2023-06-10T04:02:43;8.17;;;6.80;;
14358;SDS011;7263;49.418;11.064;2023-06-10T04:05:12;7.93;;;7.13;;
14358;SDS011;7263;49.418;11.064;2023-06-10T04:07:39;7.43;;;6.83;;
14358;SDS011;7263;49.418;11.064;2023-06-10T04:10:09;7.53;;;6.83;;
14358;SDS011;7263;49.418;11.064;2023-06-10T04:12:40;7.03;;;6.33;;
14358;SDS011;7263;49.418;11.064;2023-06-10T04:15:08;8.03;;;7.27;;
14358;SDS011;7263;49.418;11.064;2023-06-10T04:17:35;9.83;;;7.13;;
14358;SDS011;7263;49.418;11.064;2023-06-10T04:20:03;8.50;;;7.47;;
14358;SDS011;7263;49.418;11.064;2023-06-10T04:22:33;8.23;;;7.50;;
14358;SDS011;7263;49.418;11.064;2023-06-10T04:25:02;8.15;;;7.05;;
14358;SDS011;7263;49.418;11.064;2023-06-10T04:27:34;7.18;;;6.55;;
14358;SDS011;7263;49.418;11.064;2023-06-10T04:30:00;7.78;;;7.00;;
14358;SDS011;7263;49.418;11.064;2023-06-10T04:32:28;6.95;;;6.25;;
14358;SDS011;7263;49.418;11.064;2023-06-10T04:34:55;6.90;;;6.30;;
14358;SDS011;7263;49.418;11.064;2023-06-10T04:37:22;6.68;;;6.07;;
14358;SDS011;7263;49.418;11.064;2023-06-10T04:39:54;7.20;;;6.50;;
14358;SDS011;7263;49.418;11.064;2023-06-10T04:42:24;6.93;;;6.32;;
14358;SDS011;7263;49.418;11.064;2023-06-10T04:44:52;6.70;;;6.20;;
14358;SDS011;7263;49.418;11.064;2023-06-10T04:47:26;7.55;;;6.85;;
14358;SDS011;7263;49.418;11.064;2023-06-10T04:50:00;7.30;;;6.68;;
14358;SDS011;7263;49.418;11.064;2023-06-10T04:52:28;6.75;;;6.25;;
14358;SDS011;7263;49.418;11.064;2023-06-10T04:55:00;7.07;;;6.35;;
14358;SDS011;7263;49.418;11.064;2023-06-10T04:57:27;8.07;;;7.00;;
14358;SDS011;7263;49.418;11.064;2023-06-10T04:59:57;7.22;;;6.50;;
14358;SDS011;7263;49.418;11.064;2023-06-10T05:02:29;6.97;;;6.28;;
14358;SDS011;7263;49.418;11.064;2023-06-10T05:04:58;7.38;;;6.68;;
14358;SDS011;7263;49.418;11.064;2023-06-10T05:07:25;7.05;;;6.50;;
14358;SDS011;7263;49.418;11.064;2023-06-10T05:09:52;8.07;;;7.30;;
14358;SDS011;7263;49.418;11.064;2023-06-10T05:12:19;6.68;;;6.07;;
14358;SDS011;7263;49.418;11.064;2023-06-10T05:14:47;6.85;;;6.25;;
14358;SDS011;7263;49.418;11.064;2023-06-10T05:17:22;6.68;;;5.72;;
14358;SDS011;7263;49.418;11.064;2023-06-10T05:19:50;6.93;;;6.32;;
14358;SDS011;7263;49.418;11.064;2023-06-10T05:22:20;7.28;;;6.57;;
14358;SDS011;7263;49.418;11.064;2023-06-10T05:24:49;7.53;;;6.53;;
14358;SDS011;7263;49.418;11.064;2023-06-10T05:27:18;7.07;;;6.47;;
14358;SDS011;7263;49.418;11.064;2023-06-10T05:29:44;7.22;;;6.63;;
14358;SDS011;7263;49.418;11.064;2023-06-10T05:32:11;7.30;;;6.60;;
14358;SDS011;7263;49.418;11.064;2023-06-10T05:34:39;7.72;;;6.93;;
14358;SDS011;7263;49.418;11.064;2023-06-10T05:37:09;6.80;;;6.20;;
14358;SDS011;7263;49.418;11.064;2023-06-10T05:39:43;6.20;;;5.60;;
14358;SDS011;7263;49.418;11.064;2023-06-10T05:42:10;6.13;;;5.63;;
14358;SDS011;7263;49.418;11.064;2023-06-10T05:44:37;6.38;;;5.78;;
14358;SDS011;7263;49.418;11.064;2023-06-10T05:47:06;5.53;;;5.03;;
14358;SDS011;7263;49.418;11.064;2023-06-10T05:49:35;5.40;;;4.90;;
14358;SDS011;7263;49.418;11.064;2023-06-10T05:52:06;5.43;;;4.95;;
14358;SDS011;7263;49.418;11.064;2023-06-10T05:54:33;5.68;;;5.28;;
14358;SDS011;7263;49.418;11.064;2023-06-10T05:57:03;5.72;;;5.20;;
14358;SDS011;7263;49.418;11.064;2023-06-10T05:59:30;6.45;;;5.95;;
14358;SDS011;7263;49.418;11.064;2023-06-10T06:02:00;6.30;;;5.72;;
14358;SDS011;7263;49.418;11.064;2023-06-10T06:04:36;5.90;;;5.40;;
14358;SDS011;7263;49.418;11.064;2023-06-10T06:07:04;6.45;;;5.95;;
14358;SDS011;7263;49.418;11.064;2023-06-10T06:09:31;5.60;;;5.10;;
14358;SDS011;7263;49.418;11.064;2023-06-10T06:11:58;5.50;;;5.00;;
14358;SDS011;7263;49.418;11.064;2023-06-10T06:14:25;5.38;;;4.90;;
14358;SDS011;7263;49.418;11.064;2023-06-10T06:16:54;5.28;;;4.78;;
14358;SDS011;7263;49.418;11.064;2023-06-10T06:19:21;5.50;;;5.00;;
14358;SDS011;7263;49.418;11.064;2023-06-10T06:21:50;5.15;;;4.75;;
14358;SDS011;7263;49.418;11.064;2023-06-10T06:24:19;5.60;;;5.10;;
14358;SDS011;7263;49.418;11.064;2023-06-10T06:26:45;4.90;;;4.50;;
14358;SDS011;7263;49.418;11.064;2023-06-10T06:29:15;6.10;;;4.60;;
14358;SDS011;7263;49.418;11.064;2023-06-10T06:31:42;6.03;;;4.85;;
14358;SDS011;7263;49.418;11.064;2023-06-10T06:34:08;6.05;;;4.47;;
14358;SDS011;7263;49.418;11.064;2023-06-10T06:36:35;4.18;;;3.85;;
14358;SDS011;7263;49.418;11.064;2023-06-10T06:39:04;4.57;;;4.28;;
14358;SDS011;7263;49.418;11.064;2023-06-10T06:41:34;5.40;;;4.20;;
14358;SDS011;7263;49.418;11.064;2023-06-10T06:44:01;4.85;;;4.40;;
14358;SDS011;7263;49.418;11.064;2023-06-10T06:46:28;4.75;;;4.35;;
14358;SDS011;7263;49.418;11.064;2023-06-10T06:48:54;5.05;;;4.38;;
14358;SDS011;7263;49.418;11.064;2023-06-10T06:51:21;4.82;;;4.30;;
14358;SDS011;7263;49.418;11.064;2023-06-10T06:53:48;4.40;;;4.00;;
14358;SDS011;7263;49.418;11.064;2023-06-10T06:56:19;5.00;;;4.60;;
14358;SDS011;7263;49.418;11.064;2023-06-10T06:58:52;4.80;;;4.40;;
14358;SDS011;7263;49.418;11.064;2023-06-10T07:01:19;4.35;;;4.05;;
14358;SDS011;7263;49.418;11.064;2023-06-10T07:03:49;4.47;;;4.07;;
14358;SDS011;7263;49.418;11.064;2023-06-10T07:06:16;4.43;;;4.13;;
14358;SDS011;7263;49.418;11.064;2023-06-10T07:08:43;6.53;;;4.45;;
14358;SDS011;7263;49.418;11.064;2023-06-10T07:11:10;4.55;;;4.15;;
14358;SDS011;7263;49.418;11.064;2023-06-10T07:13:38;4.53;;;4.13;;
14358;SDS011;7263;49.418;11.064;2023-06-10T07:16:12;4.40;;;4.00;;
14358;SDS011;7263;49.418;11.064;2023-06-10T07:18:39;4.65;;;4.20;;
14358;SDS011;7263;49.418;11.064;2023-06-10T07:21:06;4.32;;;3.95;;
14358;SDS011;7263;49.418;11.064;2023-06-10T07:23:33;4.82;;;4.40;;
14358;SDS011;7263;49.418;11.064;2023-06-10T07:26:03;4.40;;;4.10;;
14358;SDS011;7263;49.418;11.064;2023-06-10T07:28:32;5.90;;;4.32;;
14358;SDS011;7263;49.418;11.064;2023-06-10T07:30:59;5.10;;;4.70;;
14358;SDS011;7263;49.418;11.064;2023-06-10T07:33:27;4.88;;;4.50;;
14358;SDS011;7263;49.418;11.064;2023-06-10T07:35:54;4.93;;;4.53;;
14358;SDS011;7263;49.418;11.064;2023-06-10T07:38:24;4.95;;;4.45;;
14358;SDS011;7263;49.418;11.064;2023-06-10T07:40:53;4.90;;;4.50;;
14358;SDS011;7263;49.418;11.064;2023-06-10T07:43:20;4.70;;;4.03;;
14358;SDS011;7263;49.418;11.064;2023-06-10T07:45:47;5.68;;;4.55;;
14358;SDS011;7263;49.418;11.064;2023-06-10T07:48:14;4.38;;;4.07;;
14358;SDS011;7263;49.418;11.064;2023-06-10T07:50:42;4.55;;;4.20;;
14358;SDS011;7263;49.418;11.064;2023-06-10T07:53:09;4.10;;;3.70;;
14358;SDS011;7263;49.418;11.064;2023-06-10T07:55:39;4.80;;;3.97;;
14358;SDS011;7263;49.418;11.064;2023-06-10T07:58:06;4.85;;;4.32;;
14358;SDS011;7263;49.418;11.064;2023-06-10T08:00:33;4.47;;;4.07;;
14358;SDS011;7263;49.418;11.064;2023-06-10T08:02:59;4.03;;;3.72;;
14358;SDS011;7263;49.418;11.064;2023-06-10T08:05:26;3.80;;;3.50;;
14358;SDS011;7263;49.418;11.064;2023-06-10T08:07:55;3.83;;;3.53;;
14358;SDS011;7263;49.418;11.064;2023-06-10T08:10:22;3.75;;;3.40;;
14358;SDS011;7263;49.418;11.064;2023-06-10T08:12:49;3.60;;;3.30;;
14358;SDS011;7263;49.418;11.064;2023-06-10T08:15:18;3.70;;;3.35;;
14358;SDS011;7263;49.418;11.064;2023-06-10T08:17:45;3.65;;;3.35;;
14358;SDS011;7263;49.418;11.064;2023-06-10T08:20:15;4.10;;;3.45;;
14358;SDS011;7263;49.418;11.064;2023-06-10T08:22:42;3.75;;;3.35;;
14358;SDS011;7263;49.418;11.064;2023-06-10T08:25:13;3.85;;;3.42;;
14358;SDS011;7263;49.418;11.064;2023-06-10T08:27:40;3.50;;;3.20;;
14358;SDS011;7263;49.418;11.064;2023-06-10T08:30:09;3.58;;;3.28;;
14358;SDS011;7263;49.418;11.064;2023-06-10T08:32:40;3.22;;;3.03;;
14358;SDS011;7263;49.418;11.064;2023-06-10T08:35:10;3.72;;;3.40;;
14358;SDS011;7263;49.418;11.064;2023-06-10T08:37:37;3.85;;;3.42;;
14358;SDS011;7263;49.418;11.064;2023-06-10T08:40:04;3.78;;;3.47;;
14358;SDS011;7263;49.418;11.064;2023-06-10T08:42:36;3.67;;;3.38;;
14358;SDS011;7263;49.418;11.064;2023-06-10T08:45:06;3.75;;;3.45;;
14358;SDS011;7263;49.418;11.064;2023-06-10T08:47:45;3.50;;;3.20;;
14358;SDS011;7263;49.418;11.064;2023-06-10T08:50:19;3.05;;;2.85;;
14358;SDS011;7263;49.418;11.064;2023-06-10T08:52:48;3.15;;;2.95;;
14358;SDS011;7263;49.418;11.064;2023-06-10T08:55:23;3.08;;;2.88;;
14358;SDS011;7263;49.418;11.064;2023-06-10T08:58:06;3.10;;;2.83;;
14358;SDS011;7263;49.418;11.064;2023-06-10T09:00:33;3.00;;;2.80;;
14358;SDS011;7263;49.418;11.064;2023-06-10T09:03:01;3.17;;;2.97;;
14358;SDS011;7263;49.418;11.064;2023-06-10T09:05:31;2.78;;;2.58;;
14358;SDS011;7263;49.418;11.064;2023-06-10T09:07:59;3.13;;;2.92;;
14358;SDS011;7263;49.418;11.064;2023-06-10T09:10:27;3.25;;;3.05;;
14358;SDS011;7263;49.418;11.064;2023-06-10T09:12:57;2.95;;;2.75;;
14358;SDS011;7263;49.418;11.064;2023-06-10T09:15:30;3.35;;;3.10;;
14358;SDS011;7263;49.418;11.064;2023-06-10T09:17:58;3.85;;;3.33;;
14358;SDS011;7263;49.418;11.064;2023-06-10T09:20:25;3.90;;;3.28;;
14358;SDS011;7263;49.418;11.064;2023-06-10T09:22:52;3.17;;;2.97;;
14358;SDS011;7263;49.418;11.064;2023-06-10T09:25:20;4.25;;;3.20;;
14358;SDS011;7263;49.418;11.064;2023-06-10T09:28:04;2.95;;;2.70;;
14358;SDS011;7263;49.418;11.064;2023-06-10T09:30:32;3.10;;;2.90;;
14358;SDS011;7263;49.418;11.064;2023-06-10T09:33:00;3.67;;;3.17;;
14358;SDS011;7263;49.418;11.064;2023-06-10T09:35:29;3.33;;;3.05;;
14358;SDS011;7263;49.418;11.064;2023-06-10T09:37:57;3.35;;;3.15;;
14358;SDS011;7263;49.418;11.064;2023-06-10T09:40:27;3.33;;;3.10;;
14358;SDS011;7263;49.418;11.064;2023-06-10T09:42:54;3.35;;;3.13;;
14358;SDS011;7263;49.418;11.064;2023-06-10T09:45:22;3.28;;;3.08;;
14358;SDS011;7263;49.418;11.064;2023-06-10T09:47:55;3.58;;;3.20;;
14358;SDS011;7263;49.418;11.064;2023-06-10T09:50:24;3.40;;;3.03;;
14358;SDS011;7263;49.418;11.064;2023-06-10T09:52:53;3.10;;;2.80;;
14358;SDS011;7263;49.418;11.064;2023-06-10T09:55:20;3.13;;;2.92;;
14358;SDS011;7263;49.418;11.064;2023-06-10T09:57:48;3.45;;;3.10;;
14358;SDS011;7263;49.418;11.064;2023-06-10T10:00:15;3.28;;;2.97;;
14358;SDS011;7263;49.418;11.064;2023-06-10T10:02:46;3.30;;;3.10;;
14358;SDS011;7263;49.418;11.064;2023-06-10T10:05:15;3.60;;;3.30;;
14358;SDS011;7263;49.418;11.064;2023-06-10T10:07:44;3.95;;;2.92;;
14358;SDS011;7263;49.418;11.064;2023-06-10T10:10:16;3.40;;;3.10;;
14358;SDS011;7263;49.418;11.064;2023-06-10T10:12:45;3.38;;;3.17;;
14358;SDS011;7263;49.418;11.064;2023-06-10T10:15:16;3.35;;;3.05;;
14358;SDS011;7263;49.418;11.064;2023-06-10T10:17:46;5.93;;;4.15;;
14358;SDS011;7263;49.418;11.064;2023-06-10T10:20:18;5.10;;;4.60;;
14358;SDS011;7263;49.418;11.064;2023-06-10T10:22:48;3.45;;;3.13;;
14358;SDS011;7263;49.418;11.064;2023-06-10T10:25:23;6.53;;;4.65;;
14358;SDS011;7263;49.418;11.064;2023-06-10T10:27:55;4.60;;;4.22;;
14358;SDS011;7263;49.418;11.064;2023-06-10T10:30:28;3.47;;;3.20;;
14358;SDS011;7263;49.418;11.064;2023-06-10T10:33:00;3.42;;;3.22;;
14358;SDS011;7263;49.418;11.064;2023-06-10T10:35:32;3.55;;;3.35;;
14358;SDS011;7263;49.418;11.064;2023-06-10T10:38:00;3.70;;;3.22;;
14358;SDS011;7263;49.418;11.064;2023-06-10T10:40:31;3.38;;;3.08;;
14358;SDS011;7263;49.418;11.064;2023-06-10T10:43:02;3.50;;;3.20;;
14358;SDS011;7263;49.418;11.064;2023-06-10T10:45:30;3.45;;;3.25;;
14358;SDS011;7263;49.418;11.064;2023-06-10T10:48:06;3.60;;;3.35;;
14358;SDS011;7263;49.418;11.064;2023-06-10T10:50:38;3.33;;;2.88;;
14358;SDS011;7263;49.418;11.064;2023-06-10T10:53:05;3.67;;;3.38;;
14358;SDS011;7263;49.418;11.064;2023-06-10T10:55:32;4.25;;;3.92;;
14358;SDS011;7263;49.418;11.064;2023-06-10T10:58:02;4.18;;;3.78;;
14358;SDS011;7263;49.418;11.064;2023-06-10T11:00:30;4.30;;;3.90;;
14358;SDS011;7263;49.418;11.064;2023-06-10T11:03:04;4.22;;;3.85;;
14358;SDS011;7263;49.418;11.064;2023-06-10T11:05:38;5.43;;;4.43;;
14358;SDS011;7263;49.418;11.064;2023-06-10T11:08:09;4.80;;;4.43;;
14358;SDS011;7263;49.418;11.064;2023-06-10T11:10:39;4.53;;;4.13;;
14358;SDS011;7263;49.418;11.064;2023-06-10T11:13:08;4.05;;;3.75;;
14358;SDS011;7263;49.418;11.064;2023-06-10T11:15:52;5.63;;;3.85;;
14358;SDS011;7263;49.418;11.064;2023-06-10T11:18:23;3.85;;;3.55;;
14358;SDS011;7263;49.418;11.064;2023-06-10T11:20:56;3.63;;;3.30;;
14358;SDS011;7263;49.418;11.064;2023-06-10T11:23:32;5.28;;;3.20;;
14358;SDS011;7263;49.418;11.064;2023-06-10T11:29:06;3.80;;;3.50;;
14358;SDS011;7263;49.418;11.064;2023-06-10T11:31:40;4.35;;;3.38;;
14358;SDS011;7263;49.418;11.064;2023-06-10T11:34:11;3.40;;;3.20;;
14358;SDS011;7263;49.418;11.064;2023-06-10T11:36:40;3.35;;;3.05;;
14358;SDS011;7263;49.418;11.064;2023-06-10T11:39:10;3.15;;;2.85;;
14358;SDS011;7263;49.418;11.064;2023-06-10T11:41:40;3.08;;;2.83;;
14358;SDS011;7263;49.418;11.064;2023-06-10T11:44:10;3.75;;;3.42;;
14358;SDS011;7263;49.418;11.064;2023-06-10T11:46:42;4.22;;;3.30;;
14358;SDS011;7263;49.418;11.064;2023-06-10T11:49:11;3.83;;;3.15;;
14358;SDS011;7263;49.418;11.064;2023-06-10T11:51:38;2.95;;;2.75;;
14358;SDS011;7263;49.418;11.064;2023-06-10T11:54:14;3.40;;;3.08;;
14358;SDS011;7263;49.418;11.064;2023-06-10T11:56:43;3.38;;;3.17;;
14358;SDS011;7263;49.418;11.064;2023-06-10T11:59:10;3.83;;;3.50;;
14358;SDS011;7263;49.418;11.064;2023-06-10T12:01:38;3.22;;;2.95;;
14358;SDS011;7263;49.418;11.064;2023-06-10T12:04:11;3.45;;;3.15;;
14358;SDS011;7263;49.418;11.064;2023-06-10T12:06:43;4.72;;;3.03;;
14358;SDS011;7263;49.418;11.064;2023-06-10T12:09:15;3.58;;;3.28;;
14358;SDS011;7263;49.418;11.064;2023-06-10T12:11:44;3.45;;;3.25;;
14358;SDS011;7263;49.418;11.064;2023-06-10T12:14:11;3.20;;;3.00;;
14358;SDS011;7263;49.418;11.064;2023-06-10T12:16:38;3.28;;;3.00;;
14358;SDS011;7263;49.418;11.064;2023-06-10T12:19:14;3.72;;;3.30;;
14358;SDS011;7263;49.418;11.064;2023-06-10T12:21:42;3.00;;;2.80;;
14358;SDS011;7263;49.418;11.064;2023-06-10T12:24:11;3.10;;;2.90;;
14358;SDS011;7263;49.418;11.064;2023-06-10T12:26:43;3.00;;;2.80;;
14358;SDS011;7263;49.418;11.064;2023-06-10T12:29:15;5.10;;;3.13;;
14358;SDS011;7263;49.418;11.064;2023-06-10T12:32:00;3.65;;;2.90;;
14358;SDS011;7263;49.418;11.064;2023-06-10T12:34:33;3.13;;;2.92;;
14358;SDS011;7263;49.418;11.064;2023-06-10T12:37:03;3.10;;;2.90;;
14358;SDS011;7263;49.418;11.064;2023-06-10T12:39:31;3.45;;;2.80;;
14358;SDS011;7263;49.418;11.064;2023-06-10T12:41:59;3.22;;;2.90;;
14358;SDS011;7263;49.418;11.064;2023-06-10T12:44:32;3.13;;;2.92;;
14358;SDS011;7263;49.418;11.064;2023-06-10T12:46:59;3.15;;;2.95;;
14358;SDS011;7263;49.418;11.064;2023-06-10T12:49:26;2.97;;;2.72;;
14358;SDS011;7263;49.418;11.064;2023-06-10T12:51:53;3.78;;;2.63;;
14358;SDS011;7263;49.418;11.064;2023-06-10T12:54:29;3.25;;;2.97;;
14358;SDS011;7263;49.418;11.064;2023-06-10T12:56:56;3.13;;;2.92;;
14358;SDS011;7263;49.418;11.064;2023-06-10T12:59:26;3.03;;;2.83;;
14358;SDS011;7263;49.418;11.064;2023-06-10T13:01:53;4.65;;;4.22;;
14358;SDS011;7263;49.418;11.064;2023-06-10T13:04:20;3.85;;;3.55;;
14358;SDS011;7263;49.418;11.064;2023-06-10T13:06:52;3.38;;;3.17;;
14358;SDS011;7263;49.418;11.064;2023-06-10T13:09:25;3.75;;;3.45;;
14358;SDS011;7263;49.418;11.064;2023-06-10T13:11:53;3.03;;;2.83;;
14358;SDS011;7263;49.418;11.064;2023-06-10T13:14:19;6.57;;;2.92;;
14358;SDS011;7263;49.418;11.064;2023-06-10T13:16:49;3.58;;;3.17;;
14358;SDS011;7263;49.418;11.064;2023-06-10T13:19:15;3.60;;;3.30;;
14358;SDS011;7263;49.418;11.064;2023-06-10T13:21:42;3.22;;;2.97;;
14358;SDS011;7263;49.418;11.064;2023-06-10T13:24:09;3.13;;;2.92;;
14358;SDS011;7263;49.418;11.064;2023-06-10T13:26:36;3.08;;;2.88;;
14358;SDS011;7263;49.418;11.064;2023-06-10T13:29:12;3.20;;;2.97;;
14358;SDS011;7263;49.418;11.064;2023-06-10T13:31:39;3.05;;;2.85;;
14358;SDS011;7263;49.418;11.064;2023-06-10T13:34:11;3.15;;;2.95;;
14358;SDS011;7263;49.418;11.064;2023-06-10T13:36:38;2.92;;;2.60;;
14358;SDS011;7263;49.418;11.064;2023-06-10T13:39:05;2.97;;;2.78;;
14358;SDS011;7263;49.418;11.064;2023-06-10T13:41:32;2.83;;;2.63;;
14358;SDS011;7263;49.418;11.064;2023-06-10T13:43:58;3.22;;;2.92;;
14358;SDS011;7263;49.418;11.064;2023-06-10T13:46:28;2.95;;;2.75;;
14358;SDS011;7263;49.418;11.064;2023-06-10T13:48:58;2.55;;;2.35;;
14358;SDS011;7263;49.418;11.064;2023-06-10T13:51:32;3.05;;;2.75;;
14358;SDS011;7263;49.418;11.064;2023-06-10T13:53:59;3.67;;;3.38;;
14358;SDS011;7263;49.418;11.064;2023-06-10T13:56:26;3.88;;;3.45;;
14358;SDS011;7263;49.418;11.064;2023-06-10T13:58:53;3.78;;;3.47;;
14358;SDS011;7263;49.418;11.064;2023-06-10T14:01:23;3.63;;;3.33;;
14358;SDS011;7263;49.418;11.064;2023-06-10T14:03:51;2.92;;;2.72;;
14358;SDS011;7263;49.418;11.064;2023-06-10T14:06:21;3.13;;;2.83;;
14358;SDS011;7263;49.418;11.064;2023-06-10T14:08:51;4.25;;;3.47;;
14358;SDS011;7263;49.418;11.064;2023-06-10T14:11:19;3.10;;;2.90;;
14358;SDS011;7263;49.418;11.064;2023-06-10T14:13:52;3.17;;;2.97;;
14358;SDS011;7263;49.418;11.064;2023-06-10T14:16:21;2.90;;;2.70;;
14358;SDS011;7263;49.418;11.064;2023-06-10T14:18:48;2.85;;;2.65;;
14358;SDS011;7263;49.418;11.064;2023-06-10T14:21:17;3.10;;;2.80;;
14358;SDS011;7263;49.418;11.064;2023-06-10T14:23:48;2.85;;;2.65;;
14358;SDS011;7263;49.418;11.064;2023-06-10T14:26:16;3.75;;;2.63;;
14358;SDS011;7263;49.418;11.064;2023-06-10T14:28:43;2.70;;;2.50;;
14358;SDS011;7263;49.418;11.064;2023-06-10T14:31:10;2.30;;;2.10;;
14358;SDS011;7263;49.418;11.064;2023-06-10T14:33:37;2.58;;;2.13;;
14358;SDS011;7263;49.418;11.064;2023-06-10T14:36:04;2.55;;;2.25;;
14358;SDS011;7263;49.418;11.064;2023-06-10T14:38:35;2.22;;;2.10;;
14358;SDS011;7263;49.418;11.064;2023-06-10T14:41:05;3.30;;;2.10;;
14358;SDS011;7263;49.418;11.064;2023-06-10T14:43:32;2.63;;;2.42;;
14358;SDS011;7263;49.418;11.064;2023-06-10T14:46:04;2.90;;;2.70;;
14358;SDS011;7263;49.418;11.064;2023-06-10T14:48:31;2.30;;;2.20;;
14358;SDS011;7263;49.418;11.064;2023-06-10T14:50:58;2.85;;;2.63;;
14358;SDS011;7263;49.418;11.064;2023-06-10T14:53:25;3.25;;;3.05;;
14358;SDS011;7263;49.418;11.064;2023-06-10T14:55:55;2.28;;;2.15;;
14358;SDS011;7263;49.418;11.064;2023-06-10T14:58:22;24.15;;;22.25;;
14358;SDS011;7263;49.418;11.064;2023-06-10T15:00:49;28.63;;;25.65;;
14358;SDS011;7263;49.418;11.064;2023-06-10T15:03:16;18.05;;;16.45;;
14358;SDS011;7263;49.418;11.064;2023-06-10T15:05:43;11.32;;;10.35;;